sensor_id;sensor_type;location;lat;lon;timestamp;P1;durP1;ratioP1;P2;durP2;ratioP2
54831;SDS011;40730;53.068;6.572;2023-02-28T00:02:13;8.30;;;3.03;;
54831;SDS011;40730;53.068;6.572;2023-02-28T00:04:38;11.50;;;5.18;;
54831;SDS011;40730;53.068;6.572;2023-02-28T00:07:04;12.45;;;3.33;;
54831;SDS011;40730;53.068;6.572;2023-02-28T00:09:29;5.88;;;2.75;;
54831;SDS011;40730;53.068;6.572;2023-02-28T00:11:55;11.93;;;3.70;;
54831;SDS011;40730;53.068;6.572;2023-02-28T00:14:21;7.75;;;2.75;;
54831;SDS011;40730;53.068;6.572;2023-02-28T00:16:46;6.40;;;2.65;;
54831;SDS011;40730;53.068;6.572;2023-02-28T00:19:12;8.52;;;2.42;;
54831;SDS011;40730;53.068;6.572;2023-02-28T00:21:38;11.95;;;2.85;;
54831;SDS011;40730;53.068;6.572;2023-02-28T00:24:06;8.85;;;3.55;;
54831;SDS011;40730;53.068;6.572;2023-02-28T00:26:32;8.18;;;3.53;;
54831;SDS011;40730;53.068;6.572;2023-02-28T00:28:57;12.27;;;3.58;;
54831;SDS011;40730;53.068;6.572;2023-02-28T00:31:23;14.32;;;3.63;;
54831;SDS011;40730;53.068;6.572;2023-02-28T00:33:48;8.38;;;2.65;;
54831;SDS011;40730;53.068;6.572;2023-02-28T00:36:15;12.82;;;3.30;;
54831;SDS011;40730;53.068;6.572;2023-02-28T00:38:41;6.65;;;3.20;;
54831;SDS011;40730;53.068;6.572;2023-02-28T00:41:07;10.63;;;3.42;;
54831;SDS011;40730;53.068;6.572;2023-02-28T00:43:33;10.93;;;3.63;;
54831;SDS011;40730;53.068;6.572;2023-02-28T00:46:00;10.02;;;3.35;;
54831;SDS011;40730;53.068;6.572;2023-02-28T00:48:26;17.40;;;4.15;;
54831;SDS011;40730;53.068;6.572;2023-02-28T00:50:52;11.88;;;3.72;;
54831;SDS011;40730;53.068;6.572;2023-02-28T00:53:18;7.75;;;3.40;;
54831;SDS011;40730;53.068;6.572;2023-02-28T00:55:44;7.47;;;3.78;;
54831;SDS011;40730;53.068;6.572;2023-02-28T00:58:09;7.03;;;3.20;;
54831;SDS011;40730;53.068;6.572;2023-02-28T01:00:35;6.38;;;2.60;;
54831;SDS011;40730;53.068;6.572;2023-02-28T01:03:00;7.78;;;2.58;;
54831;SDS011;40730;53.068;6.572;2023-02-28T01:05:26;12.43;;;4.00;;
54831;SDS011;40730;53.068;6.572;2023-02-28T01:07:52;9.25;;;3.30;;
54831;SDS011;40730;53.068;6.572;2023-02-28T01:10:18;10.85;;;3.13;;
54831;SDS011;40730;53.068;6.572;2023-02-28T01:12:43;9.52;;;3.47;;
54831;SDS011;40730;53.068;6.572;2023-02-28T01:15:12;11.23;;;3.22;;
54831;SDS011;40730;53.068;6.572;2023-02-28T01:17:37;14.35;;;3.70;;
54831;SDS011;40730;53.068;6.572;2023-02-28T01:20:03;12.05;;;3.72;;
54831;SDS011;40730;53.068;6.572;2023-02-28T01:22:29;11.13;;;4.25;;
54831;SDS011;40730;53.068;6.572;2023-02-28T01:24:54;9.88;;;4.00;;
54831;SDS011;40730;53.068;6.572;2023-02-28T01:27:20;13.02;;;4.38;;
54831;SDS011;40730;53.068;6.572;2023-02-28T01:29:46;8.63;;;4.10;;
54831;SDS011;40730;53.068;6.572;2023-02-28T01:32:11;11.75;;;3.85;;
54831;SDS011;40730;53.068;6.572;2023-02-28T01:34:37;7.43;;;3.80;;
54831;SDS011;40730;53.068;6.572;2023-02-28T01:37:02;10.90;;;4.20;;
54831;SDS011;40730;53.068;6.572;2023-02-28T01:39:28;11.13;;;4.57;;
54831;SDS011;40730;53.068;6.572;2023-02-28T01:41:54;9.20;;;4.65;;
54831;SDS011;40730;53.068;6.572;2023-02-28T01:47:24;9.18;;;3.75;;
54831;SDS011;40730;53.068;6.572;2023-02-28T01:49:54;6.82;;;3.22;;
54831;SDS011;40730;53.068;6.572;2023-02-28T01:52:20;6.60;;;3.47;;
54831;SDS011;40730;53.068;6.572;2023-02-28T01:54:50;12.27;;;3.42;;
54831;SDS011;40730;53.068;6.572;2023-02-28T01:57:19;6.20;;;2.70;;
54831;SDS011;40730;53.068;6.572;2023-02-28T01:59:53;10.75;;;3.72;;
54831;SDS011;40730;53.068;6.572;2023-02-28T02:02:25;7.22;;;2.90;;
54831;SDS011;40730;53.068;6.572;2023-02-28T02:04:57;7.80;;;3.40;;
54831;SDS011;40730;53.068;6.572;2023-02-28T02:07:26;10.70;;;3.58;;
54831;SDS011;40730;53.068;6.572;2023-02-28T02:10:02;13.18;;;4.47;;
54831;SDS011;40730;53.068;6.572;2023-02-28T02:15:40;11.90;;;5.35;;
54831;SDS011;40730;53.068;6.572;2023-02-28T02:21:15;13.70;;;5.93;;
54831;SDS011;40730;53.068;6.572;2023-02-28T02:24:08;14.23;;;6.30;;
54831;SDS011;40730;53.068;6.572;2023-02-28T02:29:21;13.85;;;7.03;;
54831;SDS011;40730;53.068;6.572;2023-02-28T02:42:41;14.27;;;7.72;;
54831;SDS011;40730;53.068;6.572;2023-02-28T02:48:09;16.88;;;8.13;;
54831;SDS011;40730;53.068;6.572;2023-02-28T02:50:42;18.00;;;8.02;;
54831;SDS011;40730;53.068;6.572;2023-02-28T02:53:12;27.55;;;9.27;;
54831;SDS011;40730;53.068;6.572;2023-02-28T02:55:41;20.80;;;9.07;;
54831;SDS011;40730;53.068;6.572;2023-02-28T02:58:16;22.75;;;8.40;;
54831;SDS011;40730;53.068;6.572;2023-02-28T03:00:46;18.30;;;9.20;;
54831;SDS011;40730;53.068;6.572;2023-02-28T03:03:15;18.50;;;9.15;;
54831;SDS011;40730;53.068;6.572;2023-02-28T03:05:46;21.65;;;10.02;;
54831;SDS011;40730;53.068;6.572;2023-02-28T03:08:13;17.42;;;9.63;;
54831;SDS011;40730;53.068;6.572;2023-02-28T03:15:43;19.67;;;10.75;;
54831;SDS011;40730;53.068;6.572;2023-02-28T03:18:22;21.48;;;10.68;;
54831;SDS011;40730;53.068;6.572;2023-02-28T03:24:31;22.90;;;10.55;;
54831;SDS011;40730;53.068;6.572;2023-02-28T03:27:09;19.90;;;10.32;;
54831;SDS011;40730;53.068;6.572;2023-02-28T03:29:51;23.42;;;12.00;;
54831;SDS011;40730;53.068;6.572;2023-02-28T03:32:28;23.13;;;10.67;;
54831;SDS011;40730;53.068;6.572;2023-02-28T03:35:08;25.50;;;12.35;;
54831;SDS011;40730;53.068;6.572;2023-02-28T03:37:38;21.08;;;11.60;;
54831;SDS011;40730;53.068;6.572;2023-02-28T03:40:11;20.15;;;9.55;;
54831;SDS011;40730;53.068;6.572;2023-02-28T03:42:42;20.45;;;10.82;;
54831;SDS011;40730;53.068;6.572;2023-02-28T03:45:16;19.05;;;9.98;;
54831;SDS011;40730;53.068;6.572;2023-02-28T03:50:19;17.77;;;8.15;;
54831;SDS011;40730;53.068;6.572;2023-02-28T03:52:50;21.70;;;8.77;;
54831;SDS011;40730;53.068;6.572;2023-02-28T03:55:26;17.85;;;7.78;;
54831;SDS011;40730;53.068;6.572;2023-02-28T03:57:57;14.75;;;8.18;;
54831;SDS011;40730;53.068;6.572;2023-02-28T04:00:38;18.77;;;8.40;;
54831;SDS011;40730;53.068;6.572;2023-02-28T04:03:16;16.92;;;8.02;;
54831;SDS011;40730;53.068;6.572;2023-02-28T04:05:52;15.98;;;8.20;;
54831;SDS011;40730;53.068;6.572;2023-02-28T04:08:19;19.10;;;8.18;;
54831;SDS011;40730;53.068;6.572;2023-02-28T04:10:47;19.38;;;9.32;;
54831;SDS011;40730;53.068;6.572;2023-02-28T04:13:18;16.20;;;8.57;;
54831;SDS011;40730;53.068;6.572;2023-02-28T04:15:44;19.20;;;9.23;;
54831;SDS011;40730;53.068;6.572;2023-02-28T04:18:09;19.05;;;9.35;;
54831;SDS011;40730;53.068;6.572;2023-02-28T04:20:35;23.60;;;10.50;;
54831;SDS011;40730;53.068;6.572;2023-02-28T04:23:01;18.90;;;9.73;;
54831;SDS011;40730;53.068;6.572;2023-02-28T04:25:26;20.60;;;9.85;;
54831;SDS011;40730;53.068;6.572;2023-02-28T04:27:52;18.10;;;8.75;;
54831;SDS011;40730;53.068;6.572;2023-02-28T04:30:17;21.25;;;9.68;;
54831;SDS011;40730;53.068;6.572;2023-02-28T04:32:43;20.30;;;10.05;;
54831;SDS011;40730;53.068;6.572;2023-02-28T04:35:08;20.70;;;9.10;;
54831;SDS011;40730;53.068;6.572;2023-02-28T04:37:34;22.05;;;10.02;;
54831;SDS011;40730;53.068;6.572;2023-02-28T04:40:02;21.55;;;10.52;;
54831;SDS011;40730;53.068;6.572;2023-02-28T04:42:28;19.25;;;10.23;;
54831;SDS011;40730;53.068;6.572;2023-02-28T04:45:00;25.27;;;11.32;;
54831;SDS011;40730;53.068;6.572;2023-02-28T04:47:27;25.35;;;11.45;;
54831;SDS011;40730;53.068;6.572;2023-02-28T04:49:53;22.63;;;10.93;;
54831;SDS011;40730;53.068;6.572;2023-02-28T04:52:18;27.08;;;11.48;;
54831;SDS011;40730;53.068;6.572;2023-02-28T04:54:44;27.70;;;12.43;;
54831;SDS011;40730;53.068;6.572;2023-02-28T04:57:10;32.97;;;12.57;;
54831;SDS011;40730;53.068;6.572;2023-02-28T04:59:36;26.42;;;12.88;;
54831;SDS011;40730;53.068;6.572;2023-02-28T05:02:01;27.75;;;13.35;;
54831;SDS011;40730;53.068;6.572;2023-02-28T05:04:31;22.85;;;12.15;;
54831;SDS011;40730;53.068;6.572;2023-02-28T05:06:59;28.52;;;14.50;;
54831;SDS011;40730;53.068;6.572;2023-02-28T05:09:25;29.30;;;13.68;;
54831;SDS011;40730;53.068;6.572;2023-02-28T05:11:51;29.40;;;14.98;;
54831;SDS011;40730;53.068;6.572;2023-02-28T05:14:16;35.05;;;15.50;;
54831;SDS011;40730;53.068;6.572;2023-02-28T05:16:42;37.00;;;16.23;;
54831;SDS011;40730;53.068;6.572;2023-02-28T05:19:08;34.05;;;14.70;;
54831;SDS011;40730;53.068;6.572;2023-02-28T05:21:38;35.95;;;15.57;;
54831;SDS011;40730;53.068;6.572;2023-02-28T05:24:14;35.08;;;15.90;;
54831;SDS011;40730;53.068;6.572;2023-02-28T05:26:40;37.05;;;16.73;;
54831;SDS011;40730;53.068;6.572;2023-02-28T05:29:07;43.33;;;18.33;;
54831;SDS011;40730;53.068;6.572;2023-02-28T05:31:34;37.83;;;16.35;;
54831;SDS011;40730;53.068;6.572;2023-02-28T05:34:00;37.83;;;17.20;;
54831;SDS011;40730;53.068;6.572;2023-02-28T05:36:26;36.90;;;16.33;;
54831;SDS011;40730;53.068;6.572;2023-02-28T05:38:51;29.77;;;15.45;;
54831;SDS011;40730;53.068;6.572;2023-02-28T05:41:18;31.70;;;16.05;;
54831;SDS011;40730;53.068;6.572;2023-02-28T05:43:47;33.92;;;15.65;;
54831;SDS011;40730;53.068;6.572;2023-02-28T05:46:13;37.03;;;15.80;;
54831;SDS011;40730;53.068;6.572;2023-02-28T05:48:40;32.65;;;16.50;;
54831;SDS011;40730;53.068;6.572;2023-02-28T05:51:06;35.85;;;16.23;;
54831;SDS011;40730;53.068;6.572;2023-02-28T05:53:32;35.20;;;14.27;;
54831;SDS011;40730;53.068;6.572;2023-02-28T05:55:58;29.58;;;15.05;;
54831;SDS011;40730;53.068;6.572;2023-02-28T05:58:24;33.95;;;14.38;;
54831;SDS011;40730;53.068;6.572;2023-02-28T06:00:55;34.60;;;15.75;;
54831;SDS011;40730;53.068;6.572;2023-02-28T06:03:25;38.95;;;16.88;;
54831;SDS011;40730;53.068;6.572;2023-02-28T06:05:51;39.03;;;16.85;;
54831;SDS011;40730;53.068;6.572;2023-02-28T06:08:17;38.55;;;15.90;;
54831;SDS011;40730;53.068;6.572;2023-02-28T06:10:43;37.15;;;17.27;;
54831;SDS011;40730;53.068;6.572;2023-02-28T06:13:09;37.55;;;17.92;;
54831;SDS011;40730;53.068;6.572;2023-02-28T06:15:36;51.75;;;18.65;;
54831;SDS011;40730;53.068;6.572;2023-02-28T06:18:02;44.10;;;19.98;;
54831;SDS011;40730;53.068;6.572;2023-02-28T06:20:29;47.63;;;19.55;;
54831;SDS011;40730;53.068;6.572;2023-02-28T06:22:55;40.22;;;18.30;;
54831;SDS011;40730;53.068;6.572;2023-02-28T06:25:23;34.03;;;16.75;;
54831;SDS011;40730;53.068;6.572;2023-02-28T06:27:50;38.45;;;18.48;;
54831;SDS011;40730;53.068;6.572;2023-02-28T06:30:16;43.33;;;18.63;;
54831;SDS011;40730;53.068;6.572;2023-02-28T06:32:42;44.67;;;18.75;;
54831;SDS011;40730;53.068;6.572;2023-02-28T06:35:07;42.03;;;18.92;;
54831;SDS011;40730;53.068;6.572;2023-02-28T06:37:33;40.38;;;19.08;;
54831;SDS011;40730;53.068;6.572;2023-02-28T06:39:59;45.70;;;19.33;;
54831;SDS011;40730;53.068;6.572;2023-02-28T06:42:24;42.58;;;18.92;;
54831;SDS011;40730;53.068;6.572;2023-02-28T06:44:56;43.33;;;18.65;;
54831;SDS011;40730;53.068;6.572;2023-02-28T06:47:22;42.60;;;19.15;;
54831;SDS011;40730;53.068;6.572;2023-02-28T06:49:49;40.63;;;20.00;;
54831;SDS011;40730;53.068;6.572;2023-02-28T06:52:15;43.97;;;19.27;;
54831;SDS011;40730;53.068;6.572;2023-02-28T06:54:41;50.35;;;19.80;;
54831;SDS011;40730;53.068;6.572;2023-02-28T06:57:07;46.95;;;20.20;;
54831;SDS011;40730;53.068;6.572;2023-02-28T06:59:32;47.97;;;20.48;;
54831;SDS011;40730;53.068;6.572;2023-02-28T07:01:58;45.13;;;20.50;;
54831;SDS011;40730;53.068;6.572;2023-02-28T07:04:24;46.40;;;20.75;;
54831;SDS011;40730;53.068;6.572;2023-02-28T07:06:49;55.30;;;21.17;;
54831;SDS011;40730;53.068;6.572;2023-02-28T07:09:15;47.35;;;21.92;;
54831;SDS011;40730;53.068;6.572;2023-02-28T07:11:41;48.25;;;19.58;;
54831;SDS011;40730;53.068;6.572;2023-02-28T07:14:08;48.15;;;20.73;;
54831;SDS011;40730;53.068;6.572;2023-02-28T07:16:34;45.97;;;20.92;;
54831;SDS011;40730;53.068;6.572;2023-02-28T07:19:00;39.40;;;19.65;;
54831;SDS011;40730;53.068;6.572;2023-02-28T07:21:26;48.95;;;20.88;;
54831;SDS011;40730;53.068;6.572;2023-02-28T07:23:52;44.70;;;19.40;;
54831;SDS011;40730;53.068;6.572;2023-02-28T07:26:18;46.85;;;20.20;;
54831;SDS011;40730;53.068;6.572;2023-02-28T07:28:46;48.00;;;20.30;;
54831;SDS011;40730;53.068;6.572;2023-02-28T07:31:13;47.95;;;19.75;;
54831;SDS011;40730;53.068;6.572;2023-02-28T07:33:39;42.50;;;19.92;;
54831;SDS011;40730;53.068;6.572;2023-02-28T07:36:07;41.10;;;19.42;;
54831;SDS011;40730;53.068;6.572;2023-02-28T07:38:40;38.25;;;18.50;;
54831;SDS011;40730;53.068;6.572;2023-02-28T07:41:09;41.45;;;18.75;;
54831;SDS011;40730;53.068;6.572;2023-02-28T07:43:35;36.78;;;18.88;;
54831;SDS011;40730;53.068;6.572;2023-02-28T07:46:05;33.35;;;16.65;;
54831;SDS011;40730;53.068;6.572;2023-02-28T07:48:36;31.13;;;17.25;;
54831;SDS011;40730;53.068;6.572;2023-02-28T07:51:02;36.78;;;17.77;;
54831;SDS011;40730;53.068;6.572;2023-02-28T07:53:28;38.08;;;17.50;;
54831;SDS011;40730;53.068;6.572;2023-02-28T07:55:55;39.92;;;18.05;;
54831;SDS011;40730;53.068;6.572;2023-02-28T07:58:21;34.85;;;16.85;;
54831;SDS011;40730;53.068;6.572;2023-02-28T08:00:47;32.67;;;16.65;;
54831;SDS011;40730;53.068;6.572;2023-02-28T08:03:13;32.40;;;17.45;;
54831;SDS011;40730;53.068;6.572;2023-02-28T08:05:39;35.28;;;16.10;;
54831;SDS011;40730;53.068;6.572;2023-02-28T08:08:05;34.33;;;17.20;;
54831;SDS011;40730;53.068;6.572;2023-02-28T08:10:31;30.75;;;16.48;;
54831;SDS011;40730;53.068;6.572;2023-02-28T08:12:57;33.08;;;16.63;;
54831;SDS011;40730;53.068;6.572;2023-02-28T08:15:23;32.17;;;16.10;;
54831;SDS011;40730;53.068;6.572;2023-02-28T08:17:48;29.75;;;15.63;;
54831;SDS011;40730;53.068;6.572;2023-02-28T08:20:14;29.98;;;14.88;;
54831;SDS011;40730;53.068;6.572;2023-02-28T08:22:39;26.98;;;14.77;;
54831;SDS011;40730;53.068;6.572;2023-02-28T08:25:05;25.20;;;13.35;;
54831;SDS011;40730;53.068;6.572;2023-02-28T08:27:32;23.38;;;14.07;;
54831;SDS011;40730;53.068;6.572;2023-02-28T08:29:58;24.25;;;14.55;;
54831;SDS011;40730;53.068;6.572;2023-02-28T08:32:23;25.38;;;13.40;;
54831;SDS011;40730;53.068;6.572;2023-02-28T08:34:49;24.17;;;14.40;;
54831;SDS011;40730;53.068;6.572;2023-02-28T08:37:14;25.35;;;13.27;;
54831;SDS011;40730;53.068;6.572;2023-02-28T08:39:40;23.00;;;13.07;;
54831;SDS011;40730;53.068;6.572;2023-02-28T08:42:06;21.30;;;12.77;;
54831;SDS011;40730;53.068;6.572;2023-02-28T08:44:31;22.25;;;14.07;;
54831;SDS011;40730;53.068;6.572;2023-02-28T08:46:57;22.48;;;13.35;;
54831;SDS011;40730;53.068;6.572;2023-02-28T08:49:22;24.30;;;14.15;;
54831;SDS011;40730;53.068;6.572;2023-02-28T08:51:48;23.40;;;14.18;;
54831;SDS011;40730;53.068;6.572;2023-02-28T08:54:13;23.27;;;13.52;;
54831;SDS011;40730;53.068;6.572;2023-02-28T08:56:44;28.80;;;16.23;;
54831;SDS011;40730;53.068;6.572;2023-02-28T08:59:12;27.73;;;15.88;;
54831;SDS011;40730;53.068;6.572;2023-02-28T09:01:38;19.98;;;12.55;;
54831;SDS011;40730;53.068;6.572;2023-02-28T09:04:04;16.63;;;11.18;;
54831;SDS011;40730;53.068;6.572;2023-02-28T09:06:32;19.35;;;11.73;;
54831;SDS011;40730;53.068;6.572;2023-02-28T09:08:57;16.73;;;10.45;;
54831;SDS011;40730;53.068;6.572;2023-02-28T09:11:24;13.95;;;9.80;;
54831;SDS011;40730;53.068;6.572;2023-02-28T09:13:50;11.50;;;8.90;;
54831;SDS011;40730;53.068;6.572;2023-02-28T09:16:16;9.32;;;7.90;;
54831;SDS011;40730;53.068;6.572;2023-02-28T09:18:42;10.75;;;7.78;;
54831;SDS011;40730;53.068;6.572;2023-02-28T09:21:12;11.73;;;8.70;;
54831;SDS011;40730;53.068;6.572;2023-02-28T09:23:41;10.52;;;7.80;;
54831;SDS011;40730;53.068;6.572;2023-02-28T09:26:11;12.55;;;7.78;;
54831;SDS011;40730;53.068;6.572;2023-02-28T09:28:39;11.07;;;8.18;;
54831;SDS011;40730;53.068;6.572;2023-02-28T09:31:05;11.63;;;7.18;;
54831;SDS011;40730;53.068;6.572;2023-02-28T09:33:30;11.60;;;8.25;;
54831;SDS011;40730;53.068;6.572;2023-02-28T09:36:00;10.00;;;6.60;;
54831;SDS011;40730;53.068;6.572;2023-02-28T09:38:28;8.13;;;7.00;;
54831;SDS011;40730;53.068;6.572;2023-02-28T09:40:55;7.25;;;5.60;;
54831;SDS011;40730;53.068;6.572;2023-02-28T09:43:27;8.25;;;5.88;;
54831;SDS011;40730;53.068;6.572;2023-02-28T09:46:05;7.03;;;5.63;;
54831;SDS011;40730;53.068;6.572;2023-02-28T09:48:39;6.80;;;5.22;;
54831;SDS011;40730;53.068;6.572;2023-02-28T09:53:59;10.27;;;6.43;;
54831;SDS011;40730;53.068;6.572;2023-02-28T09:56:35;6.85;;;5.65;;
54831;SDS011;40730;53.068;6.572;2023-02-28T10:01:39;8.55;;;6.03;;
54831;SDS011;40730;53.068;6.572;2023-02-28T10:06:48;10.43;;;6.13;;
54831;SDS011;40730;53.068;6.572;2023-02-28T10:09:19;7.70;;;4.75;;
54831;SDS011;40730;53.068;6.572;2023-02-28T10:11:50;8.90;;;5.32;;
54831;SDS011;40730;53.068;6.572;2023-02-28T10:14:19;10.10;;;5.47;;
54831;SDS011;40730;53.068;6.572;2023-02-28T10:16:47;7.50;;;4.90;;
54831;SDS011;40730;53.068;6.572;2023-02-28T10:19:22;7.60;;;5.10;;
54831;SDS011;40730;53.068;6.572;2023-02-28T10:21:55;6.40;;;3.75;;
54831;SDS011;40730;53.068;6.572;2023-02-28T10:24:32;5.30;;;3.08;;
54831;SDS011;40730;53.068;6.572;2023-02-28T10:29:28;5.05;;;2.72;;
54831;SDS011;40730;53.068;6.572;2023-02-28T10:31:58;4.25;;;1.98;;
54831;SDS011;40730;53.068;6.572;2023-02-28T10:34:27;3.70;;;2.33;;
54831;SDS011;40730;53.068;6.572;2023-02-28T10:36:52;3.95;;;2.45;;
54831;SDS011;40730;53.068;6.572;2023-02-28T10:42:28;4.90;;;2.90;;
54831;SDS011;40730;53.068;6.572;2023-02-28T10:45:05;2.45;;;1.40;;
54831;SDS011;40730;53.068;6.572;2023-02-28T10:47:31;4.88;;;2.67;;
54831;SDS011;40730;53.068;6.572;2023-02-28T10:49:59;6.13;;;3.35;;
54831;SDS011;40730;53.068;6.572;2023-02-28T10:52:36;5.30;;;2.85;;
54831;SDS011;40730;53.068;6.572;2023-02-28T10:55:14;4.07;;;2.28;;
54831;SDS011;40730;53.068;6.572;2023-02-28T10:57:45;5.18;;;2.38;;
54831;SDS011;40730;53.068;6.572;2023-02-28T11:00:14;3.92;;;2.13;;
54831;SDS011;40730;53.068;6.572;2023-02-28T11:02:43;3.58;;;1.90;;
54831;SDS011;40730;53.068;6.572;2023-02-28T11:08:10;3.15;;;2.03;;
54831;SDS011;40730;53.068;6.572;2023-02-28T11:10:53;3.63;;;1.80;;
54831;SDS011;40730;53.068;6.572;2023-02-28T11:13:21;4.47;;;1.83;;
54831;SDS011;40730;53.068;6.572;2023-02-28T11:15:57;5.35;;;1.90;;
54831;SDS011;40730;53.068;6.572;2023-02-28T11:18:36;3.15;;;2.00;;
54831;SDS011;40730;53.068;6.572;2023-02-28T11:21:06;2.50;;;2.17;;
54831;SDS011;40730;53.068;6.572;2023-02-28T11:23:34;3.80;;;2.38;;
54831;SDS011;40730;53.068;6.572;2023-02-28T11:26:02;3.40;;;1.90;;
54831;SDS011;40730;53.068;6.572;2023-02-28T11:28:37;6.07;;;2.38;;
54831;SDS011;40730;53.068;6.572;2023-02-28T11:36:18;3.38;;;2.53;;
54831;SDS011;40730;53.068;6.572;2023-02-28T11:38:56;2.47;;;1.95;;
54831;SDS011;40730;53.068;6.572;2023-02-28T11:41:34;6.75;;;2.83;;
54831;SDS011;40730;53.068;6.572;2023-02-28T11:55:57;3.83;;;2.38;;
54831;SDS011;40730;53.068;6.572;2023-02-28T12:01:21;3.70;;;2.28;;
54831;SDS011;40730;53.068;6.572;2023-02-28T12:06:40;4.20;;;2.45;;
54831;SDS011;40730;53.068;6.572;2023-02-28T12:15:05;3.97;;;2.15;;
54831;SDS011;40730;53.068;6.572;2023-02-28T12:23:01;2.83;;;2.33;;
54831;SDS011;40730;53.068;6.572;2023-02-28T12:26:02;3.08;;;2.10;;
54831;SDS011;40730;53.068;6.572;2023-02-28T12:28:41;4.38;;;2.38;;
54831;SDS011;40730;53.068;6.572;2023-02-28T12:33:47;3.00;;;2.70;;
54831;SDS011;40730;53.068;6.572;2023-02-28T12:36:17;3.38;;;2.30;;
54831;SDS011;40730;53.068;6.572;2023-02-28T12:38:51;4.40;;;2.97;;
54831;SDS011;40730;53.068;6.572;2023-02-28T12:43:55;5.72;;;2.72;;
54831;SDS011;40730;53.068;6.572;2023-02-28T12:46:30;3.70;;;3.08;;
54831;SDS011;40730;53.068;6.572;2023-02-28T12:49:22;6.30;;;3.58;;
54831;SDS011;40730;53.068;6.572;2023-02-28T12:51:59;4.22;;;3.15;;
54831;SDS011;40730;53.068;6.572;2023-02-28T12:54:29;4.22;;;2.97;;
54831;SDS011;40730;53.068;6.572;2023-02-28T13:10:48;4.45;;;2.95;;
54831;SDS011;40730;53.068;6.572;2023-02-28T13:13:22;4.05;;;2.85;;
54831;SDS011;40730;53.068;6.572;2023-02-28T13:16:08;4.82;;;2.80;;
54831;SDS011;40730;53.068;6.572;2023-02-28T13:18:45;6.53;;;3.60;;
54831;SDS011;40730;53.068;6.572;2023-02-28T13:21:27;5.68;;;3.30;;
54831;SDS011;40730;53.068;6.572;2023-02-28T13:34:31;7.22;;;3.42;;
54831;SDS011;40730;53.068;6.572;2023-02-28T13:39:46;6.68;;;3.60;;
54831;SDS011;40730;53.068;6.572;2023-02-28T13:47:36;5.53;;;2.65;;
54831;SDS011;40730;53.068;6.572;2023-02-28T13:50:22;8.95;;;3.58;;
54831;SDS011;40730;53.068;6.572;2023-02-28T13:57:55;5.45;;;4.13;;
54831;SDS011;40730;53.068;6.572;2023-02-28T14:01:02;6.65;;;3.08;;
54831;SDS011;40730;53.068;6.572;2023-02-28T14:03:37;6.05;;;3.25;;
54831;SDS011;40730;53.068;6.572;2023-02-28T14:06:32;5.53;;;3.13;;
54831;SDS011;40730;53.068;6.572;2023-02-28T14:11:48;3.63;;;2.63;;
54831;SDS011;40730;53.068;6.572;2023-02-28T14:17:05;5.60;;;2.33;;
54831;SDS011;40730;53.068;6.572;2023-02-28T14:19:35;4.82;;;2.47;;
54831;SDS011;40730;53.068;6.572;2023-02-28T14:25:08;4.47;;;2.20;;
54831;SDS011;40730;53.068;6.572;2023-02-28T14:30:43;2.85;;;2.25;;
54831;SDS011;40730;53.068;6.572;2023-02-28T14:33:20;4.05;;;2.28;;
54831;SDS011;40730;53.068;6.572;2023-02-28T14:38:55;2.97;;;2.08;;
54831;SDS011;40730;53.068;6.572;2023-02-28T14:46:46;3.83;;;2.47;;
54831;SDS011;40730;53.068;6.572;2023-02-28T14:49:17;3.35;;;2.45;;
54831;SDS011;40730;53.068;6.572;2023-02-28T14:51:43;3.47;;;2.67;;
54831;SDS011;40730;53.068;6.572;2023-02-28T14:54:12;4.70;;;3.00;;
54831;SDS011;40730;53.068;6.572;2023-02-28T14:56:40;5.68;;;3.33;;
54831;SDS011;40730;53.068;6.572;2023-02-28T14:59:21;4.85;;;2.65;;
54831;SDS011;40730;53.068;6.572;2023-02-28T15:01:51;3.63;;;2.33;;
54831;SDS011;40730;53.068;6.572;2023-02-28T15:04:25;4.03;;;2.50;;
54831;SDS011;40730;53.068;6.572;2023-02-28T15:07:10;3.58;;;2.50;;
54831;SDS011;40730;53.068;6.572;2023-02-28T15:09:38;4.68;;;2.72;;
54831;SDS011;40730;53.068;6.572;2023-02-28T15:12:04;7.03;;;3.03;;
54831;SDS011;40730;53.068;6.572;2023-02-28T15:14:30;6.57;;;3.38;;
54831;SDS011;40730;53.068;6.572;2023-02-28T15:16:58;7.68;;;3.50;;
54831;SDS011;40730;53.068;6.572;2023-02-28T15:19:31;5.68;;;3.38;;
54831;SDS011;40730;53.068;6.572;2023-02-28T15:22:01;5.35;;;3.13;;
54831;SDS011;40730;53.068;6.572;2023-02-28T15:27:06;5.20;;;3.25;;
54831;SDS011;40730;53.068;6.572;2023-02-28T15:29:42;4.95;;;3.40;;
54831;SDS011;40730;53.068;6.572;2023-02-28T15:32:20;5.90;;;2.88;;
54831;SDS011;40730;53.068;6.572;2023-02-28T15:34:51;3.28;;;2.40;;
54831;SDS011;40730;53.068;6.572;2023-02-28T15:39:56;5.50;;;2.85;;
54831;SDS011;40730;53.068;6.572;2023-02-28T15:42:26;5.88;;;3.67;;
54831;SDS011;40730;53.068;6.572;2023-02-28T15:44:53;3.58;;;3.03;;
54831;SDS011;40730;53.068;6.572;2023-02-28T15:47:23;6.32;;;3.30;;
54831;SDS011;40730;53.068;6.572;2023-02-28T15:57:38;7.32;;;4.13;;
54831;SDS011;40730;53.068;6.572;2023-02-28T16:00:06;6.68;;;5.35;;
54831;SDS011;40730;53.068;6.572;2023-02-28T16:02:37;7.22;;;4.95;;
54831;SDS011;40730;53.068;6.572;2023-02-28T16:07:33;7.85;;;4.38;;
54831;SDS011;40730;53.068;6.572;2023-02-28T16:10:03;5.22;;;3.95;;
54831;SDS011;40730;53.068;6.572;2023-02-28T16:12:31;6.38;;;3.72;;
54831;SDS011;40730;53.068;6.572;2023-02-28T16:14:59;6.43;;;4.15;;
54831;SDS011;40730;53.068;6.572;2023-02-28T16:17:32;6.38;;;4.10;;
54831;SDS011;40730;53.068;6.572;2023-02-28T16:20:00;7.25;;;3.05;;
54831;SDS011;40730;53.068;6.572;2023-02-28T16:22:26;6.32;;;4.38;;
54831;SDS011;40730;53.068;6.572;2023-02-28T16:24:52;6.43;;;3.75;;
54831;SDS011;40730;53.068;6.572;2023-02-28T16:27:21;6.50;;;4.53;;
54831;SDS011;40730;53.068;6.572;2023-02-28T16:29:53;6.25;;;4.45;;
54831;SDS011;40730;53.068;6.572;2023-02-28T16:32:19;6.50;;;4.03;;
54831;SDS011;40730;53.068;6.572;2023-02-28T16:34:45;8.75;;;4.68;;
54831;SDS011;40730;53.068;6.572;2023-02-28T16:37:14;8.77;;;3.92;;
54831;SDS011;40730;53.068;6.572;2023-02-28T16:39:41;6.00;;;4.30;;
54831;SDS011;40730;53.068;6.572;2023-02-28T16:42:16;6.15;;;3.88;;
54831;SDS011;40730;53.068;6.572;2023-02-28T16:44:50;7.05;;;4.25;;
54831;SDS011;40730;53.068;6.572;2023-02-28T16:47:17;9.40;;;4.57;;
54831;SDS011;40730;53.068;6.572;2023-02-28T16:49:43;6.35;;;4.20;;
54831;SDS011;40730;53.068;6.572;2023-02-28T16:52:09;5.82;;;4.40;;
54831;SDS011;40730;53.068;6.572;2023-02-28T16:54:36;6.40;;;4.45;;
54831;SDS011;40730;53.068;6.572;2023-02-28T16:57:02;8.55;;;4.78;;
54831;SDS011;40730;53.068;6.572;2023-02-28T16:59:29;10.55;;;4.80;;
54831;SDS011;40730;53.068;6.572;2023-02-28T17:01:55;7.72;;;4.10;;
54831;SDS011;40730;53.068;6.572;2023-02-28T17:04:27;8.15;;;4.60;;
54831;SDS011;40730;53.068;6.572;2023-02-28T17:06:53;7.22;;;3.97;;
54831;SDS011;40730;53.068;6.572;2023-02-28T17:09:22;6.75;;;5.00;;
54831;SDS011;40730;53.068;6.572;2023-02-28T17:11:50;6.80;;;5.22;;
54831;SDS011;40730;53.068;6.572;2023-02-28T17:14:15;5.20;;;4.70;;
54831;SDS011;40730;53.068;6.572;2023-02-28T17:16:41;6.35;;;4.57;;
54831;SDS011;40730;53.068;6.572;2023-02-28T17:19:12;8.40;;;5.13;;
54831;SDS011;40730;53.068;6.572;2023-02-28T17:21:39;11.77;;;6.00;;
54831;SDS011;40730;53.068;6.572;2023-02-28T17:24:07;10.65;;;6.03;;
54831;SDS011;40730;53.068;6.572;2023-02-28T17:26:33;8.27;;;6.00;;
54831;SDS011;40730;53.068;6.572;2023-02-28T17:28:58;12.90;;;6.13;;
54831;SDS011;40730;53.068;6.572;2023-02-28T17:31:25;14.43;;;7.72;;
54831;SDS011;40730;53.068;6.572;2023-02-28T17:33:52;9.27;;;5.00;;